Flight Track Log - Related Links

Times and Time Zones

All times are in EDT time to prevent confusion due to time zone crossing. See the JBU348 flight status page for this flight to view local times or setup timezone preferences in your user account.

Time Position Orientation Groundspeed Altitude Reporting Facility
EDT Latitude Longitude Course Direction KTS MPH feet Rate Location/Type
Sat 07:17:43 PM 27.4000 -82.5667 North 163 188 800  Level Tampa TRACON
Sat 07:18:49 PM 27.4000 -82.6333 270° West 214 246 2,600 2,190 Climbing Tampa TRACON
Sat 07:19:49 PM 27.4167 -82.7167 283° West 261 300 5,400 3,053 Climbing Tampa TRACON
Sat 07:20:00 PM 27.6230 -82.7833 North  Level FlightAware Approximate
Sat 07:20:43 PM 27.4500 -82.7667 307° West 261 300 8,400  Level Tampa TRACON
Sat 07:21:00 PM 27.7554 -82.7833 North  Level FlightAware Approximate
Sat 07:22:00 PM 27.8878 -82.7833 North  Level FlightAware Approximate
Sat 07:23:08 PM 27.6450 -82.7919 353° North 297 342 13,500  Level Jacksonville Center
Sat 07:24:08 PM 27.7492 -82.7917 360° North 344 396 15,900 2,200 Climbing Jacksonville Center
Sat 07:25:08 PM 27.8578 -82.7892 North 372 428 17,900 1,714 Climbing Jacksonville Center
Sat 07:26:07 PM 27.9706 -82.7892 360° North 386 444 19,300 1,513 Climbing Jacksonville Center
Sat 07:27:07 PM 28.0936 -82.7892 360° North 415 478 20,900 1,537 Climbing Jacksonville Center
Sat 07:28:08 PM 28.2167 -82.7867 North 432 497 22,400 1,537 Climbing Jacksonville Center
Sat 07:29:08 PM 28.3564 -82.7864 360° North 449 517 24,000 1,900 Climbing Jacksonville Center
Sat 07:30:08 PM 28.4839 -82.7792 North 449 517 26,200 2,571 Climbing Jacksonville Center
Sat 07:31:07 PM 28.6047 -82.7697 North 449 517 29,100 2,218 Climbing Jacksonville Center
Sat 07:32:07 PM 28.7069 -82.7600 North 432 497 30,600 1,200 Climbing Jacksonville Center
Sat 07:33:07 PM 28.8239 -82.7456 North 419 482 31,500 700 Climbing Jacksonville Center
Sat 07:34:07 PM 28.9450 -82.7361 North 426 490 32,000 397 Climbing Jacksonville Center
Sat 07:35:08 PM 29.0722 -82.7239 North 437 503 32,300 350 Climbing Jacksonville Center
Sat 07:36:07 PM 29.2100 -82.7117 North 464 534 32,700 555 Climbing Jacksonville Center
Sat 07:37:07 PM 29.3478 -82.6972 North 485 558 33,400 744 Climbing Jacksonville Center
Sat 07:38:08 PM 29.4856 -82.6922 North 490 564 34,200 744 Climbing Jacksonville Center
Sat 07:39:08 PM 29.6297 -82.6967 358° North 496 571 34,900 850 Climbing Jacksonville Center
Sat 07:40:08 PM 29.7675 -82.6917 North 496 571 35,900 555 Climbing Jacksonville Center
Sat 07:41:07 PM 29.9092 -82.6603 11° North 496 571 36,000 50 Climbing Jacksonville Center
Sat 07:42:07 PM 30.0492 -82.6142 16° North 509 586 36,000 298 Level Jacksonville Center
Sat 07:43:08 PM 30.1931 -82.5658 16° North 514 592 36,600 496 Climbing Jacksonville Center
Sat 07:44:08 PM 30.3369 -82.5194 16° North 520 598 37,000 200 Climbing Jacksonville Center
Sat 07:45:08 PM 30.4789 -82.4731 16° North 525 604 37,000  Level Jacksonville Center
Sat 07:46:07 PM 30.6206 -82.4267 16° North 525 604 37,000  Level Jacksonville Center
Sat 07:47:08 PM 30.7603 -82.3778 17° North 520 598 37,000  Level Jacksonville Center
Sat 07:48:07 PM 30.9000 -82.3333 15° North 520 598 37,000  Level Jacksonville Center
Sat 07:49:08 PM 31.0397 -82.2864 16° North 513 590 37,000  Level Jacksonville Center
Sat 07:50:07 PM 31.1919 -82.2369 16° North 513 590 37,000  Level Jacksonville Center
Sat 07:51:08 PM 31.3336 -82.1897 16° North 513 590 37,000  Level Jacksonville Center
Sat 07:52:07 PM 31.4733 -82.1422 16° North 513 590 37,000  Level Jacksonville Center
Sat 07:53:07 PM 31.6108 -82.0972 16° North 513 590 37,000  Level Jacksonville Center
Sat 07:54:07 PM 31.7336 -82.0497 18° North 508 585 37,000  Level Jacksonville Center
Sat 07:55:08 PM 31.8878 -81.9969 16° North 519 597 37,000  Level Jacksonville Center
Sat 07:56:08 PM 32.0083 -81.9297 25° Northeast 519 597 37,000  Level Jacksonville Center
Sat 07:57:08 PM 32.1389 -81.8056 39° Northeast 525 604 37,000  Level Jacksonville Center
Sat 07:58:08 PM 32.2547 -81.6961 39° Northeast 534 615 37,000  Level Jacksonville Center
Sat 07:59:07 PM 32.3561 -81.5892 42° Northeast 541 623 37,000  Level Jacksonville Center
Sat 08:00:08 PM 32.4819 -81.4642 40° Northeast 541 623 37,000  Level Jacksonville Center
Sat 08:01:07 PM 32.6017 -81.3464 40° Northeast 541 623 37,000  Level Jacksonville Center
Sat 08:02:07 PM 32.7028 -81.2411 41° Northeast 546 628 37,000  Level Jacksonville Center
Sat 08:03:07 PM 32.8181 -81.1253 40° Northeast 546 628 37,000  Level Jacksonville Center
Sat 08:04:08 PM 32.9269 -81.0017 44° Northeast 546 628 37,000  Level Jacksonville Center
Sat 08:05:08 PM 33.0186 -80.8586 53° Northeast 533 613 37,000  Level Jacksonville Center
Sat 08:06:08 PM 33.1058 -80.7128 54° Northeast 538 619 37,000  Level Jacksonville Center
Sat 08:07:08 PM 33.1931 -80.5667 54° Northeast 538 619 37,000  Level Jacksonville Center
Sat 08:08:08 PM 33.2842 -80.4178 54° Northeast 544 626 37,000  Level Jacksonville Center
Sat 08:09:08 PM 33.3661 -80.2439 61° Northeast 549 632 37,000  Level Jacksonville Center
Sat 08:10:07 PM 33.4189 -80.0756 69° East 539 620 37,000  Level Jacksonville Center
Sat 08:11:08 PM 33.4756 -79.9069 68° East 539 620 37,000  Level Jacksonville Center
Sat 08:12:07 PM 33.5339 -79.7356 68° East 539 620 37,000  Level Jacksonville Center
Sat 08:13:08 PM 33.6347 -79.5947 49° Northeast 539 620 37,000  Level Jacksonville Center
Sat 08:14:08 PM 33.7461 -79.4708 43° Northeast 539 620 37,000  Level Jacksonville Center
Sat 08:15:08 PM 33.8433 -79.3594 44° Northeast 533 613 37,000  Level Jacksonville Center
Sat 08:17:27 PM 34.1050 -79.0581 44° Northeast 555 639 37,000  Level Washington Center
Sat 08:18:27 PM 34.2169 -78.9294 44° Northeast 555 639 37,000  Level Washington Center
Sat 08:19:27 PM 34.3397 -78.7886 43° Northeast 555 639 37,000  Level Washington Center
Sat 08:20:27 PM 34.4517 -78.6569 44° Northeast 555 639 37,000  Level Washington Center
Sat 08:21:27 PM 34.5486 -78.5372 45° Northeast 555 639 37,000  Level Washington Center
Sat 08:22:27 PM 34.6539 -78.4197 43° Northeast 555 639 37,000  Level Washington Center
Sat 08:23:27 PM 34.7844 -78.2675 44° Northeast 550 633 37,000  Level Washington Center
Sat 08:24:27 PM 34.8919 -78.1317 46° Northeast 550 633 37,000  Level Washington Center
Sat 08:25:27 PM 35.0092 -78.0086 41° Northeast 550 633 37,000  Level Washington Center
Sat 08:26:27 PM 35.1406 -77.9008 34° Northeast 557 641 37,000  Level Washington Center
Sat 08:27:27 PM 35.2719 -77.7978 33° Northeast 562 647 37,000  Level Washington Center
Sat 08:28:27 PM 35.3986 -77.7197 27° Northeast 569 655 37,000  Level Washington Center
Sat 08:29:27 PM 35.5375 -77.6544 21° North 550 633 37,000  Level Washington Center
Sat 08:30:27 PM 35.6761 -77.5892 21° North 539 620 37,000  Level Washington Center
Sat 08:31:27 PM 35.8214 -77.5208 21° North 539 620 37,000  Level Washington Center
Sat 08:32:27 PM 35.9622 -77.4550 21° North 539 620 37,000  Level Washington Center
Sat 08:33:27 PM 36.1050 -77.3864 21° North 539 620 37,000  Level Washington Center
Sat 08:34:27 PM 36.2503 -77.2969 26° Northeast 528 608 37,000  Level Washington Center
Sat 08:35:27 PM 36.3708 -77.1758 39° Northeast 535 616 37,000  Level Washington Center
Sat 08:36:27 PM 36.4892 -77.0569 39° Northeast 541 623 37,000  Level Washington Center
Sat 08:37:27 PM 36.5992 -76.9475 39° Northeast 554 638 37,000  Level Washington Center
Sat 08:38:27 PM 36.7172 -76.8306 38° Northeast 547 629 37,000  Level Washington Center
Sat 08:39:27 PM 36.8353 -76.7103 39° Northeast 547 629 37,000  Level Washington Center
Sat 08:40:27 PM 36.9572 -76.5900 38° Northeast 547 629 37,000  Level Washington Center
Sat 08:41:27 PM 37.0769 -76.4692 39° Northeast 547 629 37,000  Level Washington Center
Sat 08:42:27 PM 37.1967 -76.3481 39° Northeast 547 629 37,000  Level Washington Center
Sat 08:43:27 PM 37.3183 -76.2239 39° Northeast 547 629 37,000  Level Washington Center
Sat 08:44:27 PM 37.4567 -76.0917 37° Northeast 554 638 37,000  Level Washington Center
Sat 08:45:27 PM 37.5781 -75.9664 39° Northeast 559 643 37,000  Level Washington Center
Sat 08:46:27 PM 37.6953 -75.8464 39° Northeast 559 643 37,000  Level Washington Center
Sat 08:47:27 PM 37.8164 -75.7206 39° Northeast 554 638 37,000  Level Washington Center
Sat 08:48:27 PM 37.9394 -75.5969 38° Northeast 559 643 37,000  Level Washington Center
Sat 08:49:27 PM 38.0606 -75.4731 39° Northeast 559 643 37,000  Level Washington Center
Sat 08:50:27 PM 38.1981 -75.3803 28° Northeast 559 643 37,000  Level Washington Center
Sat 08:51:27 PM 38.3250 -75.3006 26° Northeast 552 635 37,000 -150 Level Washington Center
Sat 08:52:27 PM 38.4622 -75.2125 27° Northeast 552 635 36,700 -650 Descending Washington Center
Sat 08:53:27 PM 38.6017 -75.1214 27° Northeast 552 635 35,700 -850 Descending Washington Center
Sat 08:54:27 PM 38.7389 -75.0300 27° Northeast 552 635 35,000 -850 Descending Washington Center
Sat 08:55:27 PM 38.8803 -74.9436 25° Northeast 552 635 34,000 -1,900 Descending Washington Center
Sat 08:56:27 PM 39.0172 -74.8517 28° Northeast 552 635 31,200 -2,850 Descending Washington Center
Sat 08:57:27 PM 39.1542 -74.7403 32° Northeast 557 641 28,300 -2,921 Descending Washington Center
Sat 08:58:59 PM 39.3425 -74.5372 40° Northeast 560 644 23,800 -2,706 Descending New York Center
Sat 09:00:00 PM 39.4442 -74.4269 40° Northeast 514 592 21,400 -2,390 Descending New York Center
Sat 09:00:57 PM 39.5411 -74.3189 41° Northeast 476 548 19,100 -1,729 Descending New York Center
Sat 09:01:58 PM 39.6339 -74.2186 40° Northeast 436 502 18,000 -843 Descending New York Center
Sat 09:02:58 PM 39.7136 -74.1281 41° Northeast 421 484 17,400 -1,475 Descending New York Center
Sat 09:04:00 PM 39.8017 -74.0322 40° Northeast 421 484 15,000 -2,122 Descending New York Center
Sat 09:05:59 PM 39.9914 -73.8758 32° Northeast 385 443 11,000 -1,517 Descending New York Center
Sat 09:06:58 PM 40.0683 -73.8114 33° Northeast 351 404 10,500 -800 Descending New York Center
Sat 09:07:59 PM 40.1322 -73.7544 34° Northeast 312 359 9,400 -1,169 Descending New York Center
Sat 09:08:15 PM 40.1667 -73.7333 25° Northeast 294 338 9,000 -1,500 Descending New York TRACON
Sat 09:09:15 PM 40.2333 -73.6833 30° Northeast 272 313 7,500 -1,500 Descending New York TRACON
Sat 09:10:15 PM 40.3000 -73.6500 21° North 257 296 6,000 -1,650 Descending New York TRACON
Sat 09:11:15 PM 40.3667 -73.6333 11° North 253 291 4,200 -1,700 Descending New York TRACON
Sat 09:12:15 PM 40.4333 -73.6167 11° North 250 288 2,600 -1,050 Descending New York TRACON
Sat 09:13:15 PM 40.5000 -73.6167 360° North 219 252 2,100 -300 Descending New York TRACON
Sat 09:14:15 PM 40.5500 -73.6167 360° North 197 227 2,000 -100 Descending New York TRACON
Sat 09:15:15 PM 40.6000 -73.6500 333° Northwest 179 206 1,900 -400 Descending New York TRACON
Sat 09:16:15 PM 40.6167 -73.7000 294° West 124 143 1,200 -650 Descending New York TRACON
Sat 09:17:15 PM 40.6333 -73.7333 303° West 119 137 600 -600 Descending New York TRACON

Login

Don't have an account? Register now (free) for customized features, flight alerts, and more!